createdAt,value
2023-05-12T00:01:16.963Z,100.00
2023-05-12T00:03:43.674Z,100.00
2023-05-12T00:06:11.303Z,100.00
2023-05-12T00:08:37.873Z,100.00
2023-05-12T00:11:04.342Z,100.00
2023-05-12T00:13:30.891Z,100.00
2023-05-12T00:15:59.035Z,100.00
2023-05-12T00:18:26.360Z,100.00
2023-05-12T00:20:54.417Z,100.00
2023-05-12T00:23:21.341Z,100.00
2023-05-12T00:25:47.899Z,100.00
2023-05-12T00:28:14.374Z,100.00
2023-05-12T00:30:40.847Z,100.00
2023-05-12T00:33:07.325Z,100.00
2023-05-12T00:35:33.804Z,100.00
2023-05-12T00:38:00.292Z,100.00
2023-05-12T00:40:26.758Z,100.00
2023-05-12T00:42:53.351Z,100.00
2023-05-12T00:45:20.473Z,100.00
2023-05-12T00:47:47.080Z,100.00
2023-05-12T00:50:13.618Z,100.00
2023-05-12T00:52:40.158Z,100.00
2023-05-12T00:55:06.855Z,100.00
2023-05-12T00:57:33.424Z,100.00
2023-05-12T00:59:59.904Z,100.00
2023-05-12T01:02:26.763Z,100.00
2023-05-12T01:04:53.326Z,100.00
2023-05-12T01:07:21.823Z,100.00
2023-05-12T01:09:48.477Z,100.00
2023-05-12T01:12:15.107Z,100.00
2023-05-12T01:14:41.640Z,100.00
2023-05-12T01:17:10.537Z,100.00
2023-05-12T01:19:54.009Z,100.00
2023-05-12T01:22:20.522Z,100.00
2023-05-12T01:24:51.382Z,100.00
2023-05-12T01:27:17.921Z,100.00
2023-05-12T01:29:47.730Z,100.00
2023-05-12T01:32:14.983Z,100.00
2023-05-12T01:34:42.613Z,100.00
2023-05-12T01:37:09.709Z,100.00
2023-05-12T01:39:36.581Z,100.00
2023-05-12T01:42:04.031Z,100.00
2023-05-12T01:44:30.527Z,100.00
2023-05-12T01:46:57.071Z,100.00
2023-05-12T01:49:23.598Z,100.00
2023-05-12T01:51:50.204Z,100.00
2023-05-12T01:54:16.679Z,100.00
2023-05-12T01:56:43.169Z,100.00
2023-05-12T01:59:09.693Z,100.00
2023-05-12T02:01:37.126Z,100.00
2023-05-12T02:04:04.635Z,100.00
2023-05-12T02:06:31.563Z,100.00
2023-05-12T02:08:58.217Z,100.00
2023-05-12T02:11:24.694Z,100.00
2023-05-12T02:13:51.175Z,100.00
2023-05-12T02:16:17.790Z,100.00
2023-05-12T02:18:44.395Z,100.00
2023-05-12T02:21:10.894Z,100.00
2023-05-12T02:23:37.391Z,100.00
2023-05-12T02:26:03.879Z,100.00
2023-05-12T02:28:30.373Z,100.00
2023-05-12T02:30:56.942Z,100.00
2023-05-12T02:33:23.552Z,100.00
2023-05-12T02:35:50.019Z,100.00
2023-05-12T02:38:16.497Z,100.00
2023-05-12T02:40:42.989Z,100.00
2023-05-12T02:43:09.486Z,100.00
2023-05-12T02:45:36.020Z,100.00
2023-05-12T02:48:02.632Z,100.00
2023-05-12T02:50:35.686Z,100.00
2023-05-12T02:53:02.244Z,100.00
2023-05-12T02:55:30.102Z,100.00
2023-05-12T02:57:56.890Z,100.00
2023-05-12T03:00:23.563Z,100.00
2023-05-12T03:02:50.286Z,100.00
2023-05-12T03:05:16.951Z,100.00
2023-05-12T03:07:43.441Z,100.00
2023-05-12T03:10:10.492Z,100.00
2023-05-12T03:12:37.073Z,100.00
2023-05-12T03:15:04.634Z,100.00
2023-05-12T03:17:31.326Z,100.00
2023-05-12T03:19:57.890Z,100.00
2023-05-12T03:22:24.355Z,100.00
2023-05-12T03:24:51.815Z,100.00
2023-05-12T03:27:18.507Z,100.00
2023-05-12T03:29:44.975Z,100.00
2023-05-12T03:32:11.473Z,100.00
2023-05-12T03:34:38.209Z,100.00
2023-05-12T03:37:04.833Z,100.00
2023-05-12T03:39:31.333Z,100.00
2023-05-12T03:41:57.794Z,100.00
2023-05-12T03:44:24.277Z,100.00
2023-05-12T03:46:50.806Z,100.00
2023-05-12T03:49:17.393Z,100.00
2023-05-12T03:51:43.866Z,100.00
2023-05-12T03:54:10.374Z,100.00
2023-05-12T03:56:36.845Z,100.00
2023-05-12T03:59:04.052Z,100.00
2023-05-12T04:01:30.521Z,100.00
2023-05-12T04:03:57.086Z,100.00
2023-05-12T04:06:23.640Z,100.00
2023-05-12T04:08:50.128Z,100.00
2023-05-12T04:11:16.609Z,100.00
2023-05-12T04:13:43.071Z,100.00
2023-05-12T04:16:09.983Z,100.00
2023-05-12T04:18:36.758Z,100.00
2023-05-12T04:21:03.735Z,100.00
2023-05-12T04:23:30.259Z,100.00
2023-05-12T04:25:56.822Z,100.00
2023-05-12T04:28:23.309Z,100.00
2023-05-12T04:30:49.867Z,100.00
2023-05-12T04:33:16.352Z,100.00
2023-05-12T04:35:42.844Z,100.00
2023-05-12T04:38:09.408Z,100.00
2023-05-12T04:40:35.935Z,100.00
2023-05-12T04:43:02.420Z,100.00
2023-05-12T04:45:28.979Z,100.00
2023-05-12T04:47:56.123Z,100.00
2023-05-12T04:50:22.626Z,100.00
2023-05-12T04:52:49.108Z,100.00
2023-05-12T04:55:15.616Z,100.00
2023-05-12T04:57:42.085Z,100.00
2023-05-12T05:00:09.219Z,100.00
2023-05-12T05:02:36.014Z,100.00
2023-05-12T05:05:02.832Z,100.00
2023-05-12T05:07:29.640Z,100.00
2023-05-12T05:09:56.127Z,100.00
2023-05-12T05:12:23.086Z,100.00
2023-05-12T05:14:49.602Z,100.00
2023-05-12T05:17:16.115Z,100.00
2023-05-12T05:19:55.191Z,100.00
2023-05-12T05:22:24.691Z,100.00
2023-05-12T05:24:51.738Z,100.00
2023-05-12T05:27:18.297Z,100.00
2023-05-12T05:29:45.060Z,100.00
2023-05-12T05:32:11.558Z,100.00
2023-05-12T05:34:38.341Z,100.00
2023-05-12T05:37:04.958Z,100.00
2023-05-12T05:39:31.508Z,100.00
2023-05-12T05:41:58.187Z,100.00
2023-05-12T05:44:25.124Z,100.00
2023-05-12T05:46:51.755Z,100.00
2023-05-12T05:49:18.456Z,100.00
2023-05-12T05:51:44.945Z,100.00
2023-05-12T05:54:12.100Z,100.00
2023-05-12T05:56:38.692Z,100.00
2023-05-12T05:59:05.531Z,100.00
2023-05-12T06:01:32.363Z,100.00
2023-05-12T06:03:59.557Z,100.00
2023-05-12T06:06:26.201Z,100.00
2023-05-12T06:08:56.099Z,100.00
2023-05-12T06:11:22.650Z,100.00
2023-05-12T06:13:49.186Z,100.00
2023-05-12T06:16:15.721Z,100.00
2023-05-12T06:18:42.306Z,100.00
2023-05-12T06:21:09.572Z,100.00
2023-05-12T06:23:36.128Z,100.00
2023-05-12T06:26:03.103Z,100.00
2023-05-12T06:28:29.645Z,100.00
2023-05-12T06:30:56.095Z,100.00
2023-05-12T06:33:22.572Z,100.00
2023-05-12T06:35:49.080Z,100.00
2023-05-12T06:38:15.888Z,100.00
2023-05-12T06:40:42.370Z,100.00
2023-05-12T06:43:08.846Z,100.00
2023-05-12T06:45:35.333Z,100.00
2023-05-12T06:48:03.170Z,100.00
2023-05-12T06:50:29.753Z,100.00
2023-05-12T06:52:56.250Z,100.00
2023-05-12T06:55:23.337Z,100.00
2023-05-12T06:57:55.381Z,100.00
2023-05-12T07:00:23.801Z,100.00
2023-05-12T07:02:50.470Z,100.00
2023-05-12T07:05:18.663Z,100.00
2023-05-12T07:07:45.565Z,100.00
2023-05-12T07:10:12.134Z,100.00
2023-05-12T07:12:39.246Z,100.00
2023-05-12T07:15:06.398Z,100.00
2023-05-12T07:17:32.917Z,100.00
2023-05-12T07:19:59.533Z,100.00
2023-05-12T07:22:26.394Z,100.00
2023-05-12T07:24:52.930Z,100.00
2023-05-12T07:27:19.433Z,100.00
2023-05-12T07:29:45.941Z,100.00
2023-05-12T07:32:12.522Z,100.00
2023-05-12T07:34:38.994Z,100.00
2023-05-12T07:37:06.420Z,100.00
2023-05-12T07:39:32.988Z,100.00
2023-05-12T07:41:59.487Z,100.00
2023-05-12T07:44:26.482Z,100.00
2023-05-12T07:46:53.041Z,100.00
2023-05-12T07:49:19.521Z,100.00
2023-05-12T07:51:46.001Z,100.00
2023-05-12T07:54:13.597Z,100.00
2023-05-12T07:56:40.177Z,100.00
2023-05-12T07:59:07.257Z,100.00
2023-05-12T08:01:34.857Z,100.00
2023-05-12T08:04:01.440Z,100.00
2023-05-12T08:06:28.081Z,100.00
2023-05-12T08:08:57.905Z,100.00
2023-05-12T08:11:25.036Z,100.00
2023-05-12T08:13:51.616Z,100.00
2023-05-12T08:16:18.269Z,100.00
2023-05-12T08:18:44.865Z,100.00
2023-05-12T08:21:11.953Z,100.00
2023-05-12T08:23:38.474Z,100.00
2023-05-12T08:26:05.012Z,100.00
2023-05-12T08:28:31.509Z,100.00
2023-05-12T08:30:58.387Z,100.00
2023-05-12T08:33:24.888Z,100.00
2023-05-12T08:35:51.351Z,100.00
2023-05-12T08:38:17.831Z,100.00
2023-05-12T08:40:48.195Z,100.00
2023-05-12T08:43:17.549Z,100.00
2023-05-12T08:45:44.014Z,100.00
2023-05-12T08:48:10.911Z,100.00
2023-05-12T08:50:38.316Z,100.00
2023-05-12T08:53:05.488Z,100.00
2023-05-12T08:55:34.142Z,100.00
2023-05-12T08:58:01.295Z,100.00
2023-05-12T09:00:28.307Z,100.00
2023-05-12T09:02:55.111Z,100.00
2023-05-12T09:05:22.543Z,100.00
2023-05-12T09:07:49.389Z,100.00
2023-05-12T09:10:32.337Z,100.00
2023-05-12T09:13:08.605Z,100.00
2023-05-12T09:15:39.595Z,98.77
2023-05-12T09:18:06.151Z,100.00
2023-05-12T09:20:32.767Z,100.00
2023-05-12T09:23:00.114Z,96.40
2023-05-12T09:25:26.659Z,100.00
2023-05-12T09:27:59.034Z,94.07
2023-05-12T09:30:32.100Z,91.36
2023-05-12T09:33:13.991Z,91.75
2023-05-12T09:35:41.370Z,93.25
2023-05-12T09:38:12.661Z,86.23
2023-05-12T09:40:39.158Z,85.61
2023-05-12T09:43:06.015Z,87.67
2023-05-12T09:45:36.377Z,87.88
2023-05-12T09:48:09.544Z,88.80
2023-05-12T09:50:47.370Z,88.56
2023-05-12T09:53:15.657Z,88.73
2023-05-12T09:55:45.875Z,85.23
2023-05-12T09:58:12.398Z,86.47
2023-05-12T10:00:59.258Z,83.20
2023-05-12T10:03:29.010Z,83.80
2023-05-12T10:05:58.640Z,81.75
2023-05-12T10:08:27.530Z,84.79
2023-05-12T10:10:53.998Z,80.11
2023-05-12T10:13:20.502Z,78.69
2023-05-12T10:15:47.287Z,83.10
2023-05-12T10:18:14.456Z,79.11
2023-05-12T10:20:41.454Z,77.71
2023-05-12T10:23:07.946Z,75.51
2023-05-12T10:25:34.618Z,78.10
2023-05-12T10:28:03.889Z,74.99
2023-05-12T10:30:30.397Z,76.24
2023-05-12T10:32:57.486Z,73.29
2023-05-12T10:35:32.389Z,74.40
2023-05-12T10:38:16.909Z,75.58
2023-05-12T10:41:00.954Z,74.81
2023-05-12T10:43:28.324Z,73.83
2023-05-12T10:46:08.416Z,74.06
2023-05-12T10:48:34.774Z,73.61
2023-05-12T10:51:10.778Z,74.32
2023-05-12T10:53:49.862Z,72.31
2023-05-12T10:56:31.398Z,71.18
2023-05-12T10:59:13.202Z,73.01
2023-05-12T11:01:41.613Z,72.78
2023-05-12T11:04:16.007Z,71.50
2023-05-12T11:06:44.774Z,67.22
2023-05-12T11:09:13.139Z,67.64
2023-05-12T11:11:40.437Z,65.99
2023-05-12T11:14:07.118Z,65.61
2023-05-12T11:16:33.626Z,64.98
2023-05-12T11:19:03.776Z,67.74
2023-05-12T11:21:30.754Z,65.71
2023-05-12T11:23:57.554Z,64.48
2023-05-12T11:26:24.022Z,62.07
2023-05-12T11:28:50.699Z,60.24
2023-05-12T11:31:21.153Z,62.38
2023-05-12T11:33:49.419Z,61.28
2023-05-12T11:36:21.773Z,60.01
2023-05-12T11:38:48.699Z,61.26
2023-05-12T11:41:21.101Z,59.38
2023-05-12T11:43:47.570Z,55.89
2023-05-12T11:46:26.785Z,55.71
2023-05-12T11:48:57.178Z,53.88
2023-05-12T11:51:26.699Z,54.67
2023-05-12T11:53:53.392Z,53.34
2023-05-12T11:56:21.624Z,52.05
2023-05-12T11:58:57.995Z,51.76
2023-05-12T12:01:24.945Z,50.39
2023-05-12T12:03:52.827Z,50.81
2023-05-12T12:06:20.161Z,48.14
2023-05-12T12:08:53.704Z,52.59
2023-05-12T12:11:23.406Z,48.98
2023-05-12T12:13:57.409Z,50.93
2023-05-12T12:16:27.771Z,50.90
2023-05-12T12:18:54.448Z,49.54
2023-05-12T12:21:21.972Z,48.37
2023-05-12T12:23:51.308Z,48.22
2023-05-12T12:26:20.542Z,49.65
2023-05-12T12:28:47.604Z,52.30
2023-05-12T12:31:14.245Z,47.12
2023-05-12T12:33:40.742Z,50.94
2023-05-12T12:36:07.405Z,49.43
2023-05-12T12:38:33.884Z,51.14
2023-05-12T12:41:00.369Z,50.24
2023-05-12T12:43:27.475Z,51.76
2023-05-12T12:45:54.607Z,49.94
2023-05-12T12:48:21.657Z,49.80
2023-05-12T12:50:48.213Z,49.47
2023-05-12T12:53:14.673Z,48.17
2023-05-12T12:55:41.162Z,46.14
2023-05-12T12:58:07.634Z,47.69
2023-05-12T13:00:34.114Z,46.59
2023-05-12T13:03:01.274Z,46.03
2023-05-12T13:05:27.896Z,47.20
2023-05-12T13:07:55.469Z,46.95
2023-05-12T13:10:22.221Z,45.32
2023-05-12T13:12:48.686Z,45.30
2023-05-12T13:15:16.010Z,45.53
2023-05-12T13:17:43.479Z,46.20
2023-05-12T13:20:10.422Z,46.97
2023-05-12T13:22:36.910Z,48.71
2023-05-12T13:25:06.629Z,46.31
2023-05-12T13:27:33.939Z,46.89
2023-05-12T13:30:00.465Z,47.07
2023-05-12T13:32:26.991Z,46.74
2023-05-12T13:34:53.505Z,48.39
2023-05-12T13:37:20.019Z,47.49
2023-05-12T13:39:46.485Z,49.36
2023-05-12T13:42:12.989Z,49.96
2023-05-12T13:44:39.460Z,49.11
2023-05-12T13:47:08.788Z,47.74
2023-05-12T13:49:35.619Z,47.59
2023-05-12T13:52:02.368Z,49.93
2023-05-12T13:54:28.910Z,51.37
2023-05-12T13:56:55.384Z,51.53
2023-05-12T13:59:22.262Z,51.01
2023-05-12T14:01:48.818Z,49.31
2023-05-12T14:04:15.358Z,53.65
2023-05-12T14:06:42.110Z,48.66
2023-05-12T14:09:08.629Z,49.25
2023-05-12T14:11:35.194Z,48.36
2023-05-12T14:14:03.272Z,44.55
2023-05-12T14:16:30.105Z,47.10
2023-05-12T14:18:56.850Z,46.77
2023-05-12T14:21:23.369Z,46.09
2023-05-12T14:23:51.297Z,46.71
2023-05-12T14:26:17.978Z,49.13
2023-05-12T14:28:44.530Z,47.56
2023-05-12T14:31:11.206Z,46.85
2023-05-12T14:33:38.083Z,47.39
2023-05-12T14:36:07.966Z,48.40
2023-05-12T14:38:35.156Z,49.37
2023-05-12T14:41:01.654Z,49.65
2023-05-12T14:43:28.192Z,47.77
2023-05-12T14:45:54.921Z,47.84
2023-05-12T14:48:22.466Z,48.98
2023-05-12T14:50:54.375Z,48.86
2023-05-12T14:53:21.109Z,50.35
2023-05-12T14:55:48.987Z,48.94
2023-05-12T14:58:17.578Z,48.23
2023-05-12T15:00:44.716Z,47.42
2023-05-12T15:03:11.532Z,48.44
2023-05-12T15:05:56.865Z,46.56
2023-05-12T15:08:24.739Z,47.48
2023-05-12T15:10:51.292Z,45.93
2023-05-12T15:13:20.234Z,47.02
2023-05-12T15:15:46.887Z,45.15
2023-05-12T15:18:13.576Z,46.92
2023-05-12T15:20:40.252Z,47.27
2023-05-12T15:23:06.841Z,46.99
2023-05-12T15:25:33.344Z,46.41
2023-05-12T15:27:59.832Z,45.48
2023-05-12T15:30:26.322Z,46.04
2023-05-12T15:32:52.861Z,43.65
2023-05-12T15:35:19.902Z,43.77
2023-05-12T15:37:46.601Z,43.63
2023-05-12T15:40:13.631Z,43.26
2023-05-12T15:42:40.662Z,45.03
2023-05-12T15:45:08.530Z,43.71
2023-05-12T15:47:36.007Z,43.76
2023-05-12T15:50:03.582Z,44.20
2023-05-12T15:52:30.520Z,44.25
2023-05-12T15:54:57.234Z,43.77
2023-05-12T15:57:23.723Z,44.51
2023-05-12T15:59:51.983Z,45.17
2023-05-12T16:02:18.696Z,43.66
2023-05-12T16:04:45.227Z,43.28
2023-05-12T16:07:11.836Z,43.84
2023-05-12T16:09:38.464Z,44.26
2023-05-12T16:12:06.889Z,44.01
2023-05-12T16:14:34.958Z,44.94
2023-05-12T16:17:01.468Z,45.11
2023-05-12T16:19:27.923Z,45.32
2023-05-12T16:21:54.949Z,45.10
2023-05-12T16:24:21.844Z,45.61
2023-05-12T16:26:48.345Z,46.51
2023-05-12T16:29:14.938Z,45.69
2023-05-12T16:31:41.451Z,47.25
2023-05-12T16:34:07.952Z,47.18
2023-05-12T16:36:34.409Z,45.55
2023-05-12T16:39:00.874Z,47.35
2023-05-12T16:41:28.779Z,46.31
2023-05-12T16:43:55.408Z,46.36
2023-05-12T16:46:22.297Z,45.73
2023-05-12T16:48:48.853Z,45.88
2023-05-12T16:51:15.391Z,45.92
2023-05-12T16:53:42.093Z,45.34
2023-05-12T16:56:08.880Z,44.65
2023-05-12T16:58:35.690Z,43.77
2023-05-12T17:01:02.321Z,45.23
2023-05-12T17:03:29.190Z,44.22
2023-05-12T17:05:56.225Z,45.15
2023-05-12T17:08:22.796Z,44.73
2023-05-12T17:10:49.277Z,44.60
2023-05-12T17:13:16.740Z,45.21
2023-05-12T17:15:43.268Z,46.84
2023-05-12T17:18:10.256Z,47.19
2023-05-12T17:20:36.981Z,47.71
2023-05-12T17:23:03.456Z,48.10
2023-05-12T17:25:31.280Z,47.89
2023-05-12T17:27:58.224Z,49.08
2023-05-12T17:30:24.704Z,48.12
2023-05-12T17:32:51.660Z,49.51
2023-05-12T17:35:18.320Z,48.54
2023-05-12T17:37:44.829Z,48.87
2023-05-12T17:40:16.076Z,49.61
2023-05-12T17:42:42.542Z,49.00
2023-05-12T17:45:09.559Z,48.55
2023-05-12T17:47:36.067Z,49.67
2023-05-12T17:50:02.621Z,48.83
2023-05-12T17:52:29.145Z,47.57
2023-05-12T17:54:58.188Z,48.64
2023-05-12T17:57:24.652Z,48.58
2023-05-12T17:59:51.325Z,48.61
2023-05-12T18:02:18.316Z,49.33
2023-05-12T18:04:45.006Z,50.35
2023-05-12T18:07:11.557Z,50.46
2023-05-12T18:09:38.103Z,50.44
2023-05-12T18:12:04.734Z,51.91
2023-05-12T18:14:31.439Z,52.28
2023-05-12T18:16:57.940Z,53.53
2023-05-12T18:19:24.663Z,53.32
2023-05-12T18:21:52.030Z,56.03
2023-05-12T18:24:23.824Z,55.82
2023-05-12T18:26:50.735Z,56.13
2023-05-12T18:29:48.010Z,55.17
2023-05-12T18:32:20.592Z,56.39
2023-05-12T18:34:48.953Z,58.67
2023-05-12T18:37:18.332Z,56.86
2023-05-12T18:39:44.844Z,57.58
2023-05-12T18:42:12.230Z,58.39
2023-05-12T18:44:44.846Z,60.22
2023-05-12T18:47:11.927Z,57.91
2023-05-12T18:49:38.668Z,58.93
2023-05-12T18:52:05.485Z,59.28
2023-05-12T18:54:33.078Z,61.85
2023-05-12T18:57:01.748Z,63.80
2023-05-12T18:59:29.010Z,61.91
2023-05-12T19:01:57.236Z,63.01
2023-05-12T19:04:23.810Z,63.20
2023-05-12T19:06:51.897Z,64.65
2023-05-12T19:09:19.653Z,63.37
2023-05-12T19:11:46.801Z,62.60
2023-05-12T19:14:13.822Z,62.29
2023-05-12T19:16:46.647Z,61.52
2023-05-12T19:19:13.623Z,62.28
2023-05-12T19:21:40.449Z,62.89
2023-05-12T19:24:07.015Z,61.73
2023-05-12T19:26:35.095Z,63.06
2023-05-12T19:29:03.085Z,64.85
2023-05-12T19:31:30.461Z,65.78
2023-05-12T19:33:56.993Z,64.26
2023-05-12T19:36:23.453Z,63.41
2023-05-12T19:38:51.426Z,65.00
2023-05-12T19:41:18.178Z,65.86
2023-05-12T19:43:47.828Z,64.63
2023-05-12T19:46:19.191Z,67.23
2023-05-12T19:48:46.448Z,66.67
2023-05-12T19:51:14.999Z,67.92
2023-05-12T19:53:43.070Z,65.05
2023-05-12T19:56:11.404Z,65.48
2023-05-12T19:58:39.909Z,65.18
2023-05-12T20:01:06.457Z,66.61
2023-05-12T20:03:33.534Z,68.09
2023-05-12T20:06:00.434Z,66.52
2023-05-12T20:08:27.094Z,67.68
2023-05-12T20:10:55.267Z,66.77
2023-05-12T20:13:21.982Z,67.38
2023-05-12T20:15:53.044Z,68.12
2023-05-12T20:18:21.510Z,66.10
2023-05-12T20:20:49.788Z,66.81
2023-05-12T20:23:17.552Z,64.20
2023-05-12T20:25:44.228Z,63.82
2023-05-12T20:28:11.704Z,62.55
2023-05-12T20:30:38.611Z,60.52
2023-05-12T20:33:05.324Z,61.80
2023-05-12T20:35:32.344Z,63.15
2023-05-12T20:38:01.517Z,63.60
2023-05-12T20:40:28.858Z,61.91
2023-05-12T20:42:55.837Z,62.70
2023-05-12T20:45:23.140Z,61.76
2023-05-12T20:47:56.109Z,60.89
2023-05-12T20:50:25.403Z,61.94
2023-05-12T20:52:51.918Z,59.91
2023-05-12T20:55:18.875Z,60.29
2023-05-12T20:57:45.479Z,61.36
2023-05-12T21:00:15.555Z,61.05
2023-05-12T21:02:47.337Z,61.09
2023-05-12T21:05:15.150Z,60.40
2023-05-12T21:07:42.455Z,61.73
2023-05-12T21:10:09.645Z,62.22
2023-05-12T21:12:36.433Z,61.22
2023-05-12T21:15:04.466Z,59.06
2023-05-12T21:17:35.075Z,60.99
2023-05-12T21:20:01.781Z,61.77
2023-05-12T21:22:28.492Z,62.39
2023-05-12T21:24:57.516Z,62.40
2023-05-12T21:27:24.561Z,62.72
2023-05-12T21:29:52.399Z,62.17
2023-05-12T21:32:18.932Z,63.53
2023-05-12T21:34:46.758Z,65.63
2023-05-12T21:37:14.949Z,63.31
2023-05-12T21:39:49.506Z,65.65
2023-05-12T21:42:16.260Z,63.84
2023-05-12T21:44:42.728Z,65.97
2023-05-12T21:47:10.529Z,64.63
2023-05-12T21:49:38.134Z,65.61
2023-05-12T21:52:07.363Z,65.14
2023-05-12T21:54:34.179Z,65.23
2023-05-12T21:57:01.238Z,65.95
2023-05-12T21:59:29.762Z,68.97
2023-05-12T22:01:57.356Z,69.26
2023-05-12T22:04:24.455Z,66.50
2023-05-12T22:06:51.844Z,69.78
2023-05-12T22:09:20.596Z,69.22
2023-05-12T22:11:48.874Z,67.47
2023-05-12T22:14:20.894Z,68.38
2023-05-12T22:16:59.278Z,68.90
2023-05-12T22:19:25.818Z,68.29
2023-05-12T22:21:53.569Z,69.06
2023-05-12T22:24:33.476Z,68.91
2023-05-12T22:27:02.140Z,68.09
2023-05-12T22:29:28.673Z,69.64
2023-05-12T22:31:55.673Z,67.77
2023-05-12T22:34:23.447Z,66.91
2023-05-12T22:36:55.166Z,68.02
2023-05-12T22:39:21.662Z,66.60
2023-05-12T22:41:51.045Z,68.53
2023-05-12T22:44:17.831Z,67.80
2023-05-12T22:46:44.674Z,66.82
2023-05-12T22:49:15.237Z,66.42
2023-05-12T22:51:46.318Z,66.93
2023-05-12T22:54:12.780Z,66.96
2023-05-12T22:56:44.724Z,65.21
2023-05-12T22:59:11.443Z,66.29
2023-05-12T23:01:37.917Z,65.61
2023-05-12T23:04:05.928Z,66.02
2023-05-12T23:06:36.726Z,63.09
2023-05-12T23:09:08.332Z,65.73
2023-05-12T23:11:34.851Z,64.87
2023-05-12T23:14:01.980Z,66.56
2023-05-12T23:16:29.654Z,66.43
2023-05-12T23:18:56.446Z,65.28
2023-05-12T23:21:22.963Z,68.10
2023-05-12T23:23:53.645Z,68.28
2023-05-12T23:26:21.029Z,68.06
2023-05-12T23:28:48.648Z,69.88
2023-05-12T23:31:15.854Z,69.15
2023-05-12T23:33:44.747Z,69.30
2023-05-12T23:36:13.706Z,69.58
2023-05-12T23:38:42.933Z,73.12
2023-05-12T23:41:11.486Z,71.23
2023-05-12T23:43:39.874Z,68.45
2023-05-12T23:46:08.755Z,70.20
2023-05-12T23:48:37.299Z,70.29
2023-05-12T23:51:05.946Z,73.19
2023-05-12T23:53:32.986Z,71.47
2023-05-12T23:56:01.522Z,70.33
2023-05-12T23:58:27.983Z,71.61
